Time;durP1;ratioP1;P1;durP2;ratioP2;P2;SDS_P1;SDS_P2;PMS_P1;PMS_P2;Temp;Humidity;BMP_temperature;BMP_pressure;BME280_temperature;BME280_humidity;BME280_pressure;Samples;Min_cycle;Max_cycle;Signal;HPM_P1;HPM_P2
2024/01/25 00:00:41;;;;;;;;;;;7.20;99.90;;;;;;4970520;28;19937;-67
2024/01/25 00:03:06;;;;;;;;;;;7.20;99.90;;;;;;4969533;28;19953;-67
2024/01/25 00:05:32;;;;;;;;;;;7.10;99.90;;;;;;4968391;28;19926;-66
2024/01/25 00:07:58;;;;;;;;;;;7.10;99.90;;;;;;4966801;28;19933;-67
2024/01/25 00:10:23;;;;;;;;;;;7.10;99.90;;;;;;4967087;28;20029;-67
2024/01/25 00:12:49;;;;;;;;;;;7.10;99.90;;;;;;4969411;28;19961;-67
2024/01/25 00:15:14;;;;;;;;;;;7.10;99.90;;;;;;4957272;28;19929;-66
2024/01/25 00:17:41;;;;;;;;;;;7.10;99.90;;;;;;4966651;28;19929;-67
2024/01/25 00:20:08;;;;;;;;;;;7.00;99.90;;;;;;4968886;28;19937;-67
2024/01/25 00:22:34;;;;;;;;;;;7.00;99.90;;;;;;4962443;28;19934;-67
2024/01/25 00:25:00;;;;;;;;;;;7.00;99.90;;;;;;4949076;28;19922;-67
2024/01/25 00:27:25;;;;;;;;;;;6.90;99.90;;;;;;4955866;28;19922;-67
2024/01/25 00:29:51;;;;;;;;;;;6.90;99.90;;;;;;4968579;28;19976;-67
2024/01/25 00:32:16;;;;;;;;;;;6.90;99.90;;;;;;4966433;28;19930;-67
2024/01/25 00:34:42;;;;;;;;;;;6.80;99.90;;;;;;4965290;28;19933;-67
2024/01/25 00:37:08;;;;;;;;;;;6.80;99.90;;;;;;4951275;28;19926;-67
2024/01/25 00:39:34;;;;;;;;;;;6.80;99.90;;;;;;4932789;28;20013;-67
2024/01/25 00:42:05;;;;;;;;;;;6.70;99.90;;;;;;4955851;28;19980;-67
2024/01/25 00:44:30;;;;;;;;;;;6.70;99.90;;;;;;4967332;28;19923;-66
2024/01/25 00:46:56;;;;;;;;;;;6.70;99.90;;;;;;4969657;28;20403;-67
2024/01/25 00:49:22;;;;;;;;;;;6.60;99.90;;;;;;4968378;28;19922;-67
2024/01/25 00:51:48;;;;;;;;;;;6.60;99.90;;;;;;4989546;28;20024;-67
2024/01/25 00:54:14;;;;;;;;;;;6.60;99.90;;;;;;4957908;28;20289;-67
2024/01/25 00:56:40;;;;;;;;;;;6.60;99.90;;;;;;4970034;28;20126;-67
2024/01/25 00:59:05;;;;;;;;;;;6.50;99.90;;;;;;4974058;28;20355;-67
2024/01/25 01:01:31;;;;;;;;;;;6.50;99.90;;;;;;4972469;28;19985;-67
2024/01/25 01:03:58;;;;;;;;;;;6.50;99.90;;;;;;4971618;28;20165;-67
2024/01/25 01:06:24;;;;;;;;;;;6.50;99.90;;;;;;4975254;28;19980;-67
2024/01/25 01:08:49;;;;;;;;;;;6.50;99.90;;;;;;4972910;28;19926;-67
2024/01/25 01:11:15;;;;;;;;;;;6.50;99.90;;;;;;4972040;28;19926;-66
2024/01/25 01:13:41;;;;;;;;;;;6.40;99.90;;;;;;4949613;28;19930;-67
2024/01/25 01:16:07;;;;;;;;;;;6.40;99.90;;;;;;4972239;28;20372;-67
2024/01/25 01:18:32;;;;;;;;;;;6.40;99.90;;;;;;4973885;28;19929;-67
2024/01/25 01:20:58;;;;;;;;;;;6.40;99.90;;;;;;4957830;28;19930;-67
2024/01/25 01:23:23;;;;;;;;;;;6.40;99.90;;;;;;4956184;28;20013;-66
2024/01/25 01:25:49;;;;;;;;;;;6.40;99.90;;;;;;4956761;28;20377;-67
2024/01/25 01:28:15;;;;;;;;;;;6.40;99.90;;;;;;4968893;28;20077;-67
2024/01/25 01:30:41;;;;;;;;;;;6.40;99.90;;;;;;4963518;28;20680;-67
2024/01/25 01:33:10;;;;;;;;;;;6.50;99.90;;;;;;4969108;28;19993;-67
2024/01/25 01:35:35;;;;;;;;;;;6.40;99.90;;;;;;4970778;28;19928;-67
2024/01/25 01:38:01;;;;;;;;;;;6.40;99.90;;;;;;4971094;28;20391;-67
2024/01/25 01:40:27;;;;;;;;;;;6.40;99.90;;;;;;4964716;28;19930;-67
2024/01/25 01:42:58;;;;;;;;;;;6.30;99.90;;;;;;4971335;28;19929;-67
2024/01/25 01:45:24;;;;;;;;;;;6.30;99.90;;;;;;4956347;28;20023;-67
2024/01/25 01:47:49;;;;;;;;;;;6.30;99.90;;;;;;4972156;28;20397;-67
2024/01/25 01:50:15;;;;;;;;;;;6.30;99.90;;;;;;4971681;28;20042;-67
2024/01/25 01:52:42;;;;;;;;;;;6.30;99.90;;;;;;4987282;28;19934;-67
2024/01/25 01:55:08;;;;;;;;;;;6.30;99.90;;;;;;4968684;28;19929;-67
2024/01/25 01:57:34;;;;;;;;;;;6.30;99.90;;;;;;4957086;28;20506;-67
2024/01/25 02:00:00;;;;;;;;;;;6.30;99.90;;;;;;4968834;28;20028;-67
2024/01/25 02:02:26;;;;;;;;;;;6.30;99.90;;;;;;4954719;28;19933;-67
2024/01/25 02:04:52;;;;;;;;;;;6.30;99.90;;;;;;4970967;28;24202;-67
2024/01/25 02:07:17;;;;;;;;;;;6.30;99.90;;;;;;4955441;28;19937;-67
2024/01/25 02:09:43;;;;;;;;;;;6.30;99.90;;;;;;4972346;28;20019;-67
2024/01/25 02:12:08;;;;;;;;;;;6.30;99.90;;;;;;4973969;28;19990;-67
2024/01/25 02:14:34;;;;;;;;;;;6.20;99.90;;;;;;4972841;28;19930;-67
2024/01/25 02:17:00;;;;;;;;;;;6.30;99.90;;;;;;4972631;28;19929;-67
2024/01/25 02:19:25;;;;;;;;;;;6.20;99.90;;;;;;4966858;28;19930;-67
2024/01/25 02:21:53;;;;;;;;;;;6.20;99.90;;;;;;4972754;28;19989;-67
2024/01/25 02:24:18;;;;;;;;;;;6.20;99.90;;;;;;4966410;28;19922;-67
2024/01/25 02:26:44;;;;;;;;;;;6.10;99.90;;;;;;4971124;28;19936;-67
2024/01/25 02:29:10;;;;;;;;;;;6.20;99.90;;;;;;4968232;28;19922;-67
2024/01/25 02:31:35;;;;;;;;;;;6.10;99.90;;;;;;4982558;28;19926;-67
2024/01/25 02:34:01;;;;;;;;;;;6.10;99.90;;;;;;4970803;28;19936;-67
2024/01/25 02:36:27;;;;;;;;;;;6.10;99.90;;;;;;4966378;28;19981;-67
2024/01/25 02:38:52;;;;;;;;;;;6.10;99.90;;;;;;4951302;28;19930;-67
2024/01/25 02:41:18;;;;;;;;;;;6.10;99.90;;;;;;4986135;28;20408;-67
2024/01/25 02:43:43;;;;;;;;;;;6.10;99.90;;;;;;4969003;28;19981;-67
2024/01/25 02:46:09;;;;;;;;;;;6.00;99.90;;;;;;4987299;28;19922;-67
2024/01/25 02:48:35;;;;;;;;;;;6.10;99.90;;;;;;4969818;28;21061;-67
2024/01/25 02:51:00;;;;;;;;;;;6.00;99.90;;;;;;4967067;28;19922;-67
2024/01/25 02:53:26;;;;;;;;;;;6.00;99.90;;;;;;4947390;28;20005;-67
2024/01/25 02:55:51;;;;;;;;;;;5.90;99.90;;;;;;4966440;28;20270;-67
2024/01/25 02:58:17;;;;;;;;;;;5.90;99.90;;;;;;4967592;28;19933;-67
2024/01/25 03:00:42;;;;;;;;;;;5.90;99.90;;;;;;4971676;28;19934;-67
2024/01/25 03:03:08;;;;;;;;;;;5.90;99.90;;;;;;4955011;28;20029;-67
2024/01/25 03:05:34;;;;;;;;;;;5.90;99.90;;;;;;4968361;28;19926;-67
2024/01/25 03:08:00;;;;;;;;;;;5.80;99.90;;;;;;4947998;28;19926;-67
2024/01/25 03:10:25;;;;;;;;;;;5.80;99.90;;;;;;4967551;28;20345;-67
2024/01/25 03:12:51;;;;;;;;;;;5.80;99.90;;;;;;4952846;28;19937;-67
2024/01/25 03:15:17;;;;;;;;;;;5.80;99.90;;;;;;4936843;28;19926;-67
2024/01/25 03:17:43;;;;;;;;;;;5.70;99.90;;;;;;4968374;28;20281;-67
2024/01/25 03:20:09;;;;;;;;;;;5.70;99.90;;;;;;4967195;28;19934;-67
2024/01/25 03:22:35;;;;;;;;;;;5.70;99.90;;;;;;4982787;28;19929;-67
2024/01/25 03:25:00;;;;;;;;;;;5.70;99.90;;;;;;4965717;28;20292;-67
2024/01/25 03:27:26;;;;;;;;;;;5.60;99.90;;;;;;4968234;28;19998;-67
2024/01/25 03:29:51;;;;;;;;;;;5.60;99.90;;;;;;4965515;28;19929;-67
2024/01/25 03:32:17;;;;;;;;;;;5.60;99.90;;;;;;4966070;28;20301;-67
2024/01/25 03:34:43;;;;;;;;;;;5.60;99.90;;;;;;4965489;28;19964;-67
2024/01/25 03:37:08;;;;;;;;;;;5.60;99.90;;;;;;4949777;28;19926;-67
2024/01/25 03:39:34;;;;;;;;;;;5.60;99.90;;;;;;4968587;28;20349;-67
2024/01/25 03:41:59;;;;;;;;;;;5.50;99.90;;;;;;4967296;28;19922;-67
2024/01/25 03:44:25;;;;;;;;;;;5.50;99.90;;;;;;4951537;28;20117;-67
2024/01/25 03:46:50;;;;;;;;;;;5.50;99.90;;;;;;4970122;28;19923;-67
2024/01/25 03:49:16;;;;;;;;;;;5.50;99.90;;;;;;4967694;28;20309;-67
2024/01/25 03:51:42;;;;;;;;;;;5.50;99.90;;;;;;4962200;28;19934;-67
2024/01/25 03:54:08;;;;;;;;;;;5.50;99.90;;;;;;4953446;28;19922;-67
2024/01/25 03:56:33;;;;;;;;;;;5.40;99.90;;;;;;4965641;28;19926;-67
2024/01/25 03:58:59;;;;;;;;;;;5.40;99.90;;;;;;4969240;28;20403;-67
2024/01/25 04:01:24;;;;;;;;;;;5.40;99.90;;;;;;4969142;28;19926;-67
2024/01/25 04:03:50;;;;;;;;;;;5.30;99.90;;;;;;4951413;28;19961;-67
2024/01/25 04:06:16;;;;;;;;;;;5.40;99.90;;;;;;4951115;28;19930;-67
2024/01/25 04:08:41;;;;;;;;;;;5.30;99.90;;;;;;4964808;28;19926;-67
2024/01/25 04:11:09;;;;;;;;;;;5.30;99.90;;;;;;4980415;28;21594;-67
2024/01/25 04:13:35;;;;;;;;;;;5.20;99.90;;;;;;4953870;28;20053;-67
2024/01/25 04:16:00;;;;;;;;;;;5.20;99.90;;;;;;4950906;28;19937;-67
2024/01/25 04:18:26;;;;;;;;;;;5.20;99.90;;;;;;4968692;28;19926;-67
2024/01/25 04:20:51;;;;;;;;;;;5.20;99.90;;;;;;4970147;28;19982;-67
2024/01/25 04:23:17;;;;;;;;;;;5.10;99.90;;;;;;4968000;28;20316;-68
2024/01/25 04:25:43;;;;;;;;;;;5.10;99.90;;;;;;4951411;28;19926;-67
2024/01/25 04:28:08;;;;;;;;;;;5.10;99.90;;;;;;4972378;28;19922;-67
2024/01/25 04:30:34;;;;;;;;;;;5.10;99.90;;;;;;4965022;28;19937;-67
2024/01/25 04:32:59;;;;;;;;;;;5.10;99.90;;;;;;4964895;28;19922;-67
2024/01/25 04:35:25;;;;;;;;;;;5.10;99.90;;;;;;4982343;28;19929;-67
2024/01/25 04:37:51;;;;;;;;;;;5.00;99.90;;;;;;4966108;28;20270;-67
2024/01/25 04:40:17;;;;;;;;;;;5.10;99.90;;;;;;4969438;28;20021;-67
2024/01/25 04:42:43;;;;;;;;;;;5.00;99.90;;;;;;4966873;28;20349;-67
2024/01/25 04:45:08;;;;;;;;;;;5.00;99.90;;;;;;4970590;28;19922;-67
2024/01/25 04:47:34;;;;;;;;;;;5.00;99.90;;;;;;4967292;28;20519;-67
2024/01/25 04:49:59;;;;;;;;;;;5.00;99.90;;;;;;4950922;28;19926;-66
2024/01/25 04:52:25;;;;;;;;;;;4.90;99.90;;;;;;4966116;28;20025;-65
2024/01/25 04:54:51;;;;;;;;;;;4.90;99.90;;;;;;4964653;28;19922;-65
2024/01/25 04:57:16;;;;;;;;;;;4.90;99.90;;;;;;4947432;28;19926;-65
2024/01/25 04:59:42;;;;;;;;;;;4.90;99.90;;;;;;4966049;28;20425;-65
2024/01/25 05:02:08;;;;;;;;;;;4.90;99.90;;;;;;4964127;28;19929;-65
2024/01/25 05:04:34;;;;;;;;;;;4.90;99.90;;;;;;4964189;28;20013;-65
2024/01/25 05:07:00;;;;;;;;;;;4.90;99.90;;;;;;4965618;28;19922;-65
2024/01/25 05:09:26;;;;;;;;;;;4.80;99.90;;;;;;4965473;28;19926;-65
2024/01/25 05:11:51;;;;;;;;;;;4.80;99.90;;;;;;4963348;28;19957;-66
2024/01/25 05:14:17;;;;;;;;;;;4.80;99.90;;;;;;4963880;28;19977;-65
2024/01/25 05:16:42;;;;;;;;;;;4.80;99.90;;;;;;4982801;28;19926;-66
2024/01/25 05:19:08;;;;;;;;;;;4.80;99.90;;;;;;4967494;28;19926;-65
2024/01/25 05:21:34;;;;;;;;;;;4.80;99.90;;;;;;4945499;28;20020;-65
2024/01/25 05:24:00;;;;;;;;;;;4.70;99.90;;;;;;4964610;28;20336;-65
2024/01/25 05:26:25;;;;;;;;;;;4.70;99.90;;;;;;4963228;28;20364;-65
2024/01/25 05:28:51;;;;;;;;;;;4.70;99.90;;;;;;4963769;28;19989;-66
2024/01/25 05:31:16;;;;;;;;;;;4.70;99.90;;;;;;4965056;28;19930;-65
2024/01/25 05:33:42;;;;;;;;;;;4.70;99.90;;;;;;4961407;28;19922;-65
2024/01/25 05:36:09;;;;;;;;;;;4.70;99.90;;;;;;4980584;28;19926;-65
2024/01/25 05:38:35;;;;;;;;;;;4.70;99.90;;;;;;4982042;28;19969;-66
2024/01/25 05:41:00;;;;;;;;;;;4.70;99.90;;;;;;4949066;28;19997;-65
2024/01/25 05:43:26;;;;;;;;;;;4.60;99.90;;;;;;4937469;28;19922;-66
2024/01/25 05:45:51;;;;;;;;;;;4.60;99.90;;;;;;4951346;28;19973;-65
2024/01/25 05:48:17;;;;;;;;;;;4.60;99.90;;;;;;4965975;28;19933;-66
2024/01/25 05:50:43;;;;;;;;;;;4.60;99.90;;;;;;4965724;28;20458;-65
2024/01/25 05:53:08;;;;;;;;;;;4.60;99.90;;;;;;4967069;28;19930;-65
2024/01/25 05:55:34;;;;;;;;;;;4.60;99.90;;;;;;4967005;28;19937;-66
2024/01/25 05:58:00;;;;;;;;;;;4.60;99.90;;;;;;4967362;28;19926;-65
2024/01/25 06:00:25;;;;;;;;;;;4.60;99.90;;;;;;4931407;28;19926;-65
2024/01/25 06:02:51;;;;;;;;;;;4.60;99.90;;;;;;4947098;28;19926;-65
2024/01/25 06:05:16;;;;;;;;;;;4.60;99.90;;;;;;4965124;28;20273;-65
2024/01/25 06:07:42;;;;;;;;;;;4.50;99.90;;;;;;4930372;28;19980;-65
2024/01/25 06:10:08;;;;;;;;;;;4.50;99.90;;;;;;4968967;28;19926;-66
2024/01/25 06:12:34;;;;;;;;;;;4.50;99.90;;;;;;4966157;28;20511;-66
2024/01/25 06:14:59;;;;;;;;;;;4.50;99.90;;;;;;4965635;28;19945;-66
2024/01/25 06:17:25;;;;;;;;;;;4.50;99.90;;;;;;4965478;28;20016;-65
2024/01/25 06:19:50;;;;;;;;;;;4.50;99.90;;;;;;4978792;28;20005;-65
2024/01/25 06:22:16;;;;;;;;;;;4.40;99.90;;;;;;4953327;28;19973;-66
2024/01/25 06:24:42;;;;;;;;;;;4.40;99.90;;;;;;4950926;28;20309;-65
2024/01/25 06:27:09;;;;;;;;;;;4.40;99.90;;;;;;4959705;28;19926;-65
2024/01/25 06:29:35;;;;;;;;;;;4.40;99.90;;;;;;4961197;28;19928;-65
2024/01/25 06:32:00;;;;;;;;;;;4.40;99.90;;;;;;4956486;28;19926;-65
2024/01/25 06:34:26;;;;;;;;;;;4.40;99.90;;;;;;4945277;28;19922;-65
2024/01/25 06:36:51;;;;;;;;;;;4.30;99.90;;;;;;4965036;28;19926;-65
2024/01/25 06:39:17;;;;;;;;;;;4.30;99.90;;;;;;4961642;28;19922;-65
2024/01/25 06:41:43;;;;;;;;;;;4.30;99.90;;;;;;4964180;28;20846;-65
2024/01/25 06:44:08;;;;;;;;;;;4.30;99.90;;;;;;4962835;28;19961;-65
2024/01/25 06:46:34;;;;;;;;;;;4.20;99.90;;;;;;4953240;28;19938;-65
2024/01/25 06:48:59;;;;;;;;;;;4.30;99.90;;;;;;4978369;28;20050;-65
2024/01/25 06:51:25;;;;;;;;;;;4.20;99.90;;;;;;4964157;28;19940;-65
2024/01/25 06:53:51;;;;;;;;;;;4.20;99.90;;;;;;4963307;28;19922;-65
2024/01/25 06:56:16;;;;;;;;;;;4.20;99.90;;;;;;4961906;28;19944;-65
2024/01/25 06:58:42;;;;;;;;;;;4.20;99.90;;;;;;4964233;28;19937;-66
2024/01/25 07:01:07;;;;;;;;;;;4.20;99.90;;;;;;4961024;28;19936;-66
2024/01/25 07:03:33;;;;;;;;;;;4.20;99.90;;;;;;4944931;28;19930;-66
2024/01/25 07:05:59;;;;;;;;;;;4.20;99.90;;;;;;4961622;28;19933;-57
2024/01/25 07:08:24;;;;;;;;;;;4.20;99.90;;;;;;4980228;28;19926;-59
2024/01/25 07:10:50;;;;;;;;;;;4.10;99.90;;;;;;4969238;28;19926;-60
2024/01/25 07:13:16;;;;;;;;;;;4.10;99.90;;;;;;4959272;28;20028;-59
2024/01/25 07:15:42;;;;;;;;;;;4.10;99.90;;;;;;4966104;28;19925;-59
2024/01/25 07:18:08;;;;;;;;;;;4.10;99.90;;;;;;4966306;28;19922;-59
2024/01/25 07:20:33;;;;;;;;;;;4.10;99.90;;;;;;4967810;28;19946;-59
2024/01/25 07:22:59;;;;;;;;;;;4.10;99.90;;;;;;4966673;28;20415;-58
2024/01/25 07:25:24;;;;;;;;;;;4.00;99.90;;;;;;4970619;28;20339;-58
2024/01/25 07:27:50;;;;;;;;;;;4.10;99.90;;;;;;4966575;28;20468;-59
2024/01/25 07:30:16;;;;;;;;;;;4.00;99.90;;;;;;4963679;28;19953;-59
2024/01/25 07:32:42;;;;;;;;;;;4.00;99.90;;;;;;4963465;28;20211;-58
2024/01/25 07:35:09;;;;;;;;;;;3.90;99.90;;;;;;4966362;28;19926;-57
2024/01/25 07:37:35;;;;;;;;;;;3.90;99.90;;;;;;4985282;28;19922;-59
2024/01/25 07:40:03;;;;;;;;;;;3.90;99.90;;;;;;4968187;28;19926;-58
2024/01/25 07:42:29;;;;;;;;;;;3.90;99.90;;;;;;4967669;28;20558;-58
2024/01/25 07:44:54;;;;;;;;;;;3.90;99.90;;;;;;4965292;28;20266;-58
2024/01/25 07:47:20;;;;;;;;;;;3.90;99.90;;;;;;4964475;28;19937;-58
2024/01/25 07:49:45;;;;;;;;;;;3.90;99.90;;;;;;4968755;28;20340;-58
2024/01/25 07:52:11;;;;;;;;;;;3.90;99.90;;;;;;4969124;28;19981;-58
2024/01/25 07:54:36;;;;;;;;;;;3.80;99.90;;;;;;4979487;28;19926;-58
2024/01/25 07:57:02;;;;;;;;;;;3.90;99.90;;;;;;4965911;28;20336;-60
2024/01/25 07:59:28;;;;;;;;;;;3.90;99.90;;;;;;4967994;28;19922;-59
2024/01/25 08:01:53;;;;;;;;;;;3.80;99.90;;;;;;4982714;28;19930;-59
2024/01/25 08:04:19;;;;;;;;;;;3.90;99.90;;;;;;4968715;28;19922;-59
2024/01/25 08:06:44;;;;;;;;;;;3.90;99.90;;;;;;4967455;28;19926;-59
2024/01/25 08:09:10;;;;;;;;;;;3.90;99.90;;;;;;4967748;28;19933;-59
2024/01/25 08:11:36;;;;;;;;;;;3.90;99.90;;;;;;4965341;28;19996;-58
2024/01/25 08:14:03;;;;;;;;;;;3.90;99.90;;;;;;4969573;28;19929;-58
2024/01/25 08:16:29;;;;;;;;;;;3.90;99.90;;;;;;4969552;28;20006;-59
2024/01/25 08:18:54;;;;;;;;;;;3.90;99.90;;;;;;4964516;28;20019;-59
2024/01/25 08:21:20;;;;;;;;;;;4.00;99.90;;;;;;4967365;28;19930;-58
2024/01/25 08:23:46;;;;;;;;;;;4.00;99.90;;;;;;4966975;28;19930;-58
2024/01/25 08:26:12;;;;;;;;;;;4.00;99.90;;;;;;4967659;28;19965;-58
2024/01/25 08:28:43;;;;;;;;;;;4.00;99.90;;;;;;4968424;28;19978;-61
2024/01/25 08:31:08;;;;;;;;;;;4.00;99.90;;;;;;4965055;28;19955;-59
2024/01/25 08:33:34;;;;;;;;;;;4.10;99.90;;;;;;4962291;28;20348;-58
2024/01/25 08:36:00;;;;;;;;;;;4.10;99.90;;;;;;4965048;28;19923;-58
2024/01/25 08:38:26;;;;;;;;;;;4.10;99.90;;;;;;4982066;28;19933;-58
2024/01/25 08:40:51;;;;;;;;;;;4.10;99.90;;;;;;4968201;28;19973;-59
2024/01/25 08:43:17;;;;;;;;;;;4.20;99.90;;;;;;4966839;28;19933;-59
2024/01/25 08:45:43;;;;;;;;;;;4.20;99.90;;;;;;4966652;28;19922;-60
2024/01/25 08:48:08;;;;;;;;;;;4.20;99.90;;;;;;4965797;28;19933;-58
2024/01/25 08:50:35;;;;;;;;;;;4.20;99.90;;;;;;4964712;28;19933;-58
2024/01/25 08:53:01;;;;;;;;;;;4.30;99.90;;;;;;4968709;28;19930;-58
2024/01/25 08:55:27;;;;;;;;;;;4.30;99.90;;;;;;4969169;28;19922;-58
2024/01/25 08:57:52;;;;;;;;;;;4.30;99.90;;;;;;4967670;28;19990;-60
2024/01/25 09:00:18;;;;;;;;;;;4.30;99.90;;;;;;4966771;28;19930;-58
2024/01/25 09:02:44;;;;;;;;;;;4.30;99.90;;;;;;4981339;28;19934;-59
2024/01/25 09:05:10;;;;;;;;;;;4.40;99.90;;;;;;4968052;28;19927;-60
2024/01/25 09:07:36;;;;;;;;;;;4.40;99.90;;;;;;4966531;28;20288;-58
2024/01/25 09:10:02;;;;;;;;;;;4.40;99.90;;;;;;4965850;28;19922;-60
2024/01/25 09:12:28;;;;;;;;;;;4.50;99.90;;;;;;4968956;28;20498;-58
2024/01/25 09:14:53;;;;;;;;;;;4.50;99.90;;;;;;4970205;28;19930;-58
2024/01/25 09:17:21;;;;;;;;;;;4.50;99.90;;;;;;4985299;28;19977;-60
2024/01/25 09:19:51;;;;;;;;;;;4.60;99.90;;;;;;4973149;28;19937;-60
2024/01/25 09:22:19;;;;;;;;;;;4.60;99.90;;;;;;4970360;28;19922;-58
2024/01/25 09:24:45;;;;;;;;;;;4.60;99.90;;;;;;4969983;28;19926;-58
2024/01/25 09:27:12;;;;;;;;;;;4.70;99.90;;;;;;4953807;28;20024;-59
2024/01/25 09:29:38;;;;;;;;;;;4.70;99.90;;;;;;4969366;28;20048;-58
2024/01/25 09:32:05;;;;;;;;;;;4.80;99.90;;;;;;4968695;28;19937;-59
2024/01/25 09:34:31;;;;;;;;;;;4.80;99.90;;;;;;4970845;28;20284;-58
2024/01/25 09:36:56;;;;;;;;;;;4.90;99.90;;;;;;4970981;28;19926;-58
2024/01/25 09:39:22;;;;;;;;;;;4.90;99.90;;;;;;4969558;28;19922;-58
2024/01/25 09:41:47;;;;;;;;;;;5.00;99.90;;;;;;4968676;28;19926;-59
2024/01/25 09:44:13;;;;;;;;;;;5.00;99.90;;;;;;4970113;28;19952;-58
2024/01/25 09:46:40;;;;;;;;;;;5.10;99.90;;;;;;4971822;28;20017;-59
2024/01/25 09:49:07;;;;;;;;;;;5.10;99.90;;;;;;4966463;28;19936;-59
2024/01/25 09:51:36;;;;;;;;;;;5.20;99.90;;;;;;4968586;28;20387;-59
2024/01/25 09:54:02;;;;;;;;;;;5.20;99.90;;;;;;4963062;28;19933;-59
2024/01/25 09:56:29;;;;;;;;;;;5.30;99.90;;;;;;4969017;28;19993;-59
2024/01/25 09:58:55;;;;;;;;;;;5.30;99.90;;;;;;4972681;28;19957;-60
2024/01/25 10:01:20;;;;;;;;;;;5.30;99.90;;;;;;4971362;28;20024;-59
2024/01/25 10:03:46;;;;;;;;;;;5.40;99.90;;;;;;4967935;28;19922;-58
2024/01/25 10:06:12;;;;;;;;;;;5.50;99.90;;;;;;4968174;28;19930;-58
2024/01/25 10:08:38;;;;;;;;;;;5.60;99.90;;;;;;4969393;28;19981;-59
2024/01/25 10:11:04;;;;;;;;;;;5.70;99.90;;;;;;4971131;28;19969;-59
2024/01/25 10:13:29;;;;;;;;;;;5.80;99.90;;;;;;4969290;28;19976;-59
2024/01/25 10:15:55;;;;;;;;;;;5.90;99.90;;;;;;4970328;28;19922;-58
2024/01/25 10:18:25;;;;;;;;;;;5.90;99.90;;;;;;4968045;28;19933;-58
2024/01/25 10:20:53;;;;;;;;;;;6.00;99.90;;;;;;4968248;28;20017;-59
2024/01/25 10:23:18;;;;;;;;;;;6.10;99.90;;;;;;4970938;28;19926;-60
2024/01/25 10:25:44;;;;;;;;;;;6.20;99.90;;;;;;4972446;28;20445;-59
2024/01/25 10:28:09;;;;;;;;;;;6.30;99.90;;;;;;4983627;28;19948;-59
2024/01/25 10:30:36;;;;;;;;;;;6.30;99.90;;;;;;4967794;28;19981;-59
2024/01/25 10:33:01;;;;;;;;;;;6.50;99.90;;;;;;4981197;28;19972;-59
2024/01/25 10:35:27;;;;;;;;;;;6.50;99.90;;;;;;4968982;28;19965;-60
2024/01/25 10:37:53;;;;;;;;;;;6.50;99.90;;;;;;4971756;28;20300;-59
2024/01/25 10:40:19;;;;;;;;;;;6.50;99.90;;;;;;4969756;28;20293;-58
2024/01/25 10:42:45;;;;;;;;;;;6.50;99.90;;;;;;4983228;28;19973;-58
2024/01/25 10:45:11;;;;;;;;;;;6.40;99.90;;;;;;4951226;28;20016;-58
2024/01/25 10:47:37;;;;;;;;;;;6.50;99.90;;;;;;4968338;28;19928;-59
2024/01/25 10:50:04;;;;;;;;;;;6.50;99.90;;;;;;4969166;28;19922;-59
2024/01/25 10:52:31;;;;;;;;;;;6.60;99.90;;;;;;4969334;28;19930;-60
2024/01/25 10:54:56;;;;;;;;;;;6.70;99.90;;;;;;4962551;28;20301;-59
2024/01/25 10:57:22;;;;;;;;;;;6.80;99.90;;;;;;4969125;28;19926;-58
2024/01/25 10:59:48;;;;;;;;;;;6.90;99.90;;;;;;4967895;28;19962;-60
2024/01/25 11:02:14;;;;;;;;;;;7.10;99.90;;;;;;4970832;28;20016;-59
2024/01/25 11:04:39;;;;;;;;;;;7.30;99.90;;;;;;4968575;28;19937;-59
2024/01/25 11:07:11;;;;;;;;;;;7.30;99.90;;;;;;4968136;28;19926;-59
2024/01/25 11:09:37;;;;;;;;;;;7.40;99.90;;;;;;4967603;28;20005;-59
2024/01/25 11:12:11;;;;;;;;;;;7.50;99.90;;;;;;4984365;28;20009;-60
2024/01/25 11:14:39;;;;;;;;;;;7.60;99.90;;;;;;4969378;28;20373;-59
2024/01/25 11:17:23;;;;;;;;;;;7.70;99.90;;;;;;4970949;28;19969;-58
2024/01/25 11:19:50;;;;;;;;;;;7.80;99.90;;;;;;4967726;28;19930;-59
2024/01/25 11:22:16;;;;;;;;;;;7.80;99.90;;;;;;4969287;28;19980;-59
2024/01/25 11:24:42;;;;;;;;;;;7.80;99.90;;;;;;4967643;28;20324;-59
2024/01/25 11:27:09;;;;;;;;;;;7.90;99.90;;;;;;4968628;28;19926;-59
2024/01/25 11:29:34;;;;;;;;;;;7.90;99.90;;;;;;4965634;28;19937;-60
2024/01/25 11:32:00;;;;;;;;;;;7.90;99.90;;;;;;4965506;28;19923;-60
2024/01/25 11:34:26;;;;;;;;;;;7.90;99.90;;;;;;4965468;28;20385;-59
2024/01/25 11:36:51;;;;;;;;;;;7.90;99.90;;;;;;4967801;28;20399;-59
2024/01/25 11:39:17;;;;;;;;;;;8.00;99.90;;;;;;4982491;28;20278;-59
2024/01/25 11:41:43;;;;;;;;;;;8.00;99.90;;;;;;4967434;28;19930;-60
2024/01/25 11:44:09;;;;;;;;;;;8.10;99.90;;;;;;4969856;28;19929;-60
2024/01/25 11:46:35;;;;;;;;;;;8.00;99.90;;;;;;4968967;28;19922;-59
2024/01/25 11:49:01;;;;;;;;;;;8.00;99.90;;;;;;4965751;28;19922;-59
2024/01/25 11:51:26;;;;;;;;;;;7.90;99.90;;;;;;4967813;28;19929;-59
2024/01/25 11:53:52;;;;;;;;;;;7.90;99.90;;;;;;4967297;28;19926;-58
2024/01/25 11:56:26;;;;;;;;;;;7.90;99.90;;;;;;4970133;28;19926;-60
2024/01/25 11:58:52;;;;;;;;;;;7.80;99.90;;;;;;4968113;28;19937;-59
2024/01/25 12:01:18;;;;;;;;;;;7.80;99.90;;;;;;4969485;28;19930;-59
2024/01/25 12:03:44;;;;;;;;;;;7.80;99.90;;;;;;4965634;28;19933;-59
2024/01/25 12:06:09;;;;;;;;;;;7.80;99.90;;;;;;4966514;28;19926;-58
2024/01/25 12:08:35;;;;;;;;;;;7.80;99.90;;;;;;4968707;28;19980;-59
2024/01/25 12:11:08;;;;;;;;;;;7.80;99.90;;;;;;4969736;28;19922;-59
2024/01/25 12:13:43;;;;;;;;;;;7.80;99.90;;;;;;4968296;28;19930;-59
2024/01/25 12:16:09;;;;;;;;;;;7.90;99.90;;;;;;4966989;28;19965;-58
2024/01/25 12:18:37;;;;;;;;;;;7.90;99.90;;;;;;4967293;28;20451;-59
2024/01/25 12:21:03;;;;;;;;;;;7.90;99.90;;;;;;4966104;28;20341;-59
2024/01/25 12:23:30;;;;;;;;;;;7.90;99.90;;;;;;4970404;28;20392;-58
2024/01/25 12:25:58;;;;;;;;;;;7.90;99.90;;;;;;4967413;28;19933;-59
2024/01/25 12:28:25;;;;;;;;;;;7.90;99.90;;;;;;4965706;28;20036;-59
2024/01/25 12:30:51;;;;;;;;;;;8.00;99.90;;;;;;4966194;28;20004;-59
2024/01/25 12:33:16;;;;;;;;;;;8.00;99.90;;;;;;4961750;28;20037;-59
2024/01/25 12:35:42;;;;;;;;;;;8.10;99.90;;;;;;4968455;28;19922;-61
2024/01/25 12:38:08;;;;;;;;;;;8.10;99.90;;;;;;4967756;28;19929;-59
2024/01/25 12:40:33;;;;;;;;;;;8.20;99.90;;;;;;4965713;28;19984;-59
2024/01/25 12:42:59;;;;;;;;;;;8.20;99.90;;;;;;4960926;28;20416;-59
2024/01/25 12:45:24;;;;;;;;;;;8.30;99.90;;;;;;4956295;28;19969;-60
2024/01/25 12:47:50;;;;;;;;;;;8.30;99.90;;;;;;4956919;28;19965;-60
2024/01/25 12:50:15;;;;;;;;;;;8.30;99.90;;;;;;4963910;28;19933;-59
2024/01/25 12:52:41;;;;;;;;;;;8.30;99.90;;;;;;4963314;28;20044;-59
2024/01/25 12:55:07;;;;;;;;;;;8.30;99.90;;;;;;4966333;28;20333;-59
2024/01/25 12:57:34;;;;;;;;;;;8.30;99.90;;;;;;4964025;28;19958;-60
2024/01/25 13:00:00;;;;;;;;;;;8.20;99.90;;;;;;4965070;28;19980;-59
2024/01/25 13:02:25;;;;;;;;;;;8.20;99.90;;;;;;4965345;28;20446;-59
2024/01/25 13:04:51;;;;;;;;;;;8.20;99.90;;;;;;4964235;28;19981;-61
2024/01/25 13:07:16;;;;;;;;;;;8.30;99.90;;;;;;4978105;28;19969;-59
2024/01/25 13:09:42;;;;;;;;;;;8.20;99.90;;;;;;4964445;28;19933;-60
2024/01/25 13:12:08;;;;;;;;;;;8.20;99.90;;;;;;4963990;28;19930;-59
2024/01/25 13:14:33;;;;;;;;;;;8.20;99.90;;;;;;4964757;28;20009;-59
2024/01/25 13:16:59;;;;;;;;;;;8.20;99.90;;;;;;4962181;28;19988;-59
2024/01/25 13:19:24;;;;;;;;;;;8.10;99.90;;;;;;4961712;28;19930;-59
2024/01/25 13:21:50;;;;;;;;;;;8.20;99.90;;;;;;4963418;28;19926;-60
2024/01/25 13:24:16;;;;;;;;;;;8.20;99.90;;;;;;4962807;28;19929;-59
2024/01/25 13:26:41;;;;;;;;;;;8.20;99.90;;;;;;4963297;28;20404;-58
2024/01/25 13:29:07;;;;;;;;;;;8.20;99.90;;;;;;4962604;28;19972;-60
2024/01/25 13:31:33;;;;;;;;;;;8.20;99.90;;;;;;4958196;28;19984;-59
2024/01/25 13:33:58;;;;;;;;;;;8.20;99.90;;;;;;4959075;28;19926;-59
2024/01/25 13:36:24;;;;;;;;;;;8.20;99.90;;;;;;4964506;28;20253;-59
2024/01/25 13:38:49;;;;;;;;;;;8.20;99.90;;;;;;4979687;28;19926;-60
2024/01/25 13:41:15;;;;;;;;;;;8.30;99.90;;;;;;4963454;28;20074;-60
2024/01/25 13:43:40;;;;;;;;;;;8.20;99.90;;;;;;4963718;28;19922;-59
2024/01/25 13:46:06;;;;;;;;;;;8.20;99.90;;;;;;4961861;28;20373;-59
2024/01/25 13:48:32;;;;;;;;;;;8.30;99.90;;;;;;4961003;28;19973;-59
2024/01/25 13:50:57;;;;;;;;;;;8.20;99.90;;;;;;4962970;28;19930;-60
2024/01/25 13:53:24;;;;;;;;;;;8.20;99.90;;;;;;4963832;28;19934;-58
2024/01/25 13:55:49;;;;;;;;;;;8.20;99.90;;;;;;4975971;28;20400;-59
2024/01/25 13:58:15;;;;;;;;;;;8.20;99.90;;;;;;4963607;28;19926;-59
2024/01/25 14:00:41;;;;;;;;;;;8.20;99.90;;;;;;4963883;28;20345;-59
2024/01/25 14:03:06;;;;;;;;;;;8.20;99.90;;;;;;4977234;28;20510;-58
2024/01/25 14:05:32;;;;;;;;;;;8.20;99.90;;;;;;4962893;28;19922;-58
2024/01/25 14:07:59;;;;;;;;;;;8.30;99.90;;;;;;4960840;28;19937;-59
2024/01/25 14:10:27;;;;;;;;;;;8.30;99.90;;;;;;4960918;28;19922;-58
2024/01/25 14:12:53;;;;;;;;;;;8.30;99.90;;;;;;4960259;28;19925;-59
2024/01/25 14:15:18;;;;;;;;;;;8.30;99.90;;;;;;4961707;28;19930;-58
2024/01/25 14:17:47;;;;;;;;;;;8.30;99.90;;;;;;4961795;28;19963;-58
2024/01/25 14:20:13;;;;;;;;;;;8.30;99.90;;;;;;4961649;28;19937;-59
2024/01/25 14:22:38;;;;;;;;;;;8.30;99.90;;;;;;4962276;28;19926;-58